sensor_id;sensor_type;location;lat;lon;timestamp;temperature;humidity
13375;DHT22;6756;51.354;15.754;2023-03-08T00:01:29;0.50;99.90
13375;DHT22;6756;51.354;15.754;2023-03-08T00:05:30;0.40;99.90
13375;DHT22;6756;51.354;15.754;2023-03-08T00:09:31;0.30;99.90
13375;DHT22;6756;51.354;15.754;2023-03-08T00:13:32;0.30;99.90
13375;DHT22;6756;51.354;15.754;2023-03-08T00:17:35;0.30;99.90
13375;DHT22;6756;51.354;15.754;2023-03-08T00:21:37;0.20;1.00
13375;DHT22;6756;51.354;15.754;2023-03-08T00:25:37;0.20;99.90
13375;DHT22;6756;51.354;15.754;2023-03-08T00:29:38;0.20;1.00
13375;DHT22;6756;51.354;15.754;2023-03-08T00:33:39;0.20;20.40
13375;DHT22;6756;51.354;15.754;2023-03-08T00:37:40;0.10;99.90
13375;DHT22;6756;51.354;15.754;2023-03-08T00:41:41;0.10;99.90
13375;DHT22;6756;51.354;15.754;2023-03-08T00:45:42;0.10;99.90
13375;DHT22;6756;51.354;15.754;2023-03-08T00:49:43;0.10;99.90
13375;DHT22;6756;51.354;15.754;2023-03-08T00:53:44;0.10;99.90
13375;DHT22;6756;51.354;15.754;2023-03-08T00:57:45;0.10;99.90
13375;DHT22;6756;51.354;15.754;2023-03-08T01:01:46;0.10;99.90
13375;DHT22;6756;51.354;15.754;2023-03-08T01:05:53;0.10;99.90
13375;DHT22;6756;51.354;15.754;2023-03-08T01:09:54;0.10;99.90
13375;DHT22;6756;51.354;15.754;2023-03-08T01:13:55;0.00;99.90
13375;DHT22;6756;51.354;15.754;2023-03-08T01:17:56;0.00;99.90
13375;DHT22;6756;51.354;15.754;2023-03-08T01:21:57;0.00;99.90
13375;DHT22;6756;51.354;15.754;2023-03-08T01:26:06;0.00;99.90
13375;DHT22;6756;51.354;15.754;2023-03-08T01:30:08;0.00;99.90
13375;DHT22;6756;51.354;15.754;2023-03-08T01:34:09;0.00;99.90
13375;DHT22;6756;51.354;15.754;2023-03-08T01:38:10;0.00;99.90
13375;DHT22;6756;51.354;15.754;2023-03-08T01:42:10;0.00;99.90
13375;DHT22;6756;51.354;15.754;2023-03-08T01:46:26;0.00;99.90
13375;DHT22;6756;51.354;15.754;2023-03-08T01:50:27;0.00;99.90
13375;DHT22;6756;51.354;15.754;2023-03-08T01:54:38;0.00;99.90
13375;DHT22;6756;51.354;15.754;2023-03-08T01:58:43;0.00;99.90
13375;DHT22;6756;51.354;15.754;2023-03-08T02:02:58;0.00;99.90
13375;DHT22;6756;51.354;15.754;2023-03-08T02:07:00;0.00;99.90
13375;DHT22;6756;51.354;15.754;2023-03-08T02:11:01;0.00;99.90
13375;DHT22;6756;51.354;15.754;2023-03-08T02:15:04;0.00;99.90
13375;DHT22;6756;51.354;15.754;2023-03-08T02:19:11;0.00;99.90
13375;DHT22;6756;51.354;15.754;2023-03-08T02:23:16;0.10;99.90
13375;DHT22;6756;51.354;15.754;2023-03-08T02:27:22;0.10;99.90
13375;DHT22;6756;51.354;15.754;2023-03-08T02:31:24;0.00;99.90
13375;DHT22;6756;51.354;15.754;2023-03-08T02:35:25;0.00;99.90
13375;DHT22;6756;51.354;15.754;2023-03-08T02:39:26;-0.10;99.90
13375;DHT22;6756;51.354;15.754;2023-03-08T02:43:26;-0.10;99.90
13375;DHT22;6756;51.354;15.754;2023-03-08T02:47:27;-0.10;99.90
13375;DHT22;6756;51.354;15.754;2023-03-08T02:51:28;-0.10;99.90
13375;DHT22;6756;51.354;15.754;2023-03-08T02:55:29;-0.10;99.90
13375;DHT22;6756;51.354;15.754;2023-03-08T02:59:29;-0.20;99.90
13375;DHT22;6756;51.354;15.754;2023-03-08T03:03:30;-0.10;99.90
13375;DHT22;6756;51.354;15.754;2023-03-08T03:07:34;-0.10;99.90
13375;DHT22;6756;51.354;15.754;2023-03-08T03:11:35;-0.10;99.90
13375;DHT22;6756;51.354;15.754;2023-03-08T03:15:37;-0.10;99.90
13375;DHT22;6756;51.354;15.754;2023-03-08T03:19:39;-0.10;99.90
13375;DHT22;6756;51.354;15.754;2023-03-08T03:23:40;-0.10;99.90
13375;DHT22;6756;51.354;15.754;2023-03-08T03:27:41;-0.10;99.90
13375;DHT22;6756;51.354;15.754;2023-03-08T03:31:42;0.00;99.90
13375;DHT22;6756;51.354;15.754;2023-03-08T03:35:43;0.00;99.90
13375;DHT22;6756;51.354;15.754;2023-03-08T03:39:44;0.00;99.90
13375;DHT22;6756;51.354;15.754;2023-03-08T03:43:45;0.00;99.90
13375;DHT22;6756;51.354;15.754;2023-03-08T03:47:46;0.00;99.90
13375;DHT22;6756;51.354;15.754;2023-03-08T03:51:47;-0.10;99.90
13375;DHT22;6756;51.354;15.754;2023-03-08T03:55:48;-0.10;99.90
13375;DHT22;6756;51.354;15.754;2023-03-08T03:59:49;-0.10;99.90
13375;DHT22;6756;51.354;15.754;2023-03-08T04:03:50;-0.10;99.90
13375;DHT22;6756;51.354;15.754;2023-03-08T04:07:51;-0.10;99.90
13375;DHT22;6756;51.354;15.754;2023-03-08T04:11:52;-0.10;99.90
13375;DHT22;6756;51.354;15.754;2023-03-08T04:15:53;-0.10;99.90
13375;DHT22;6756;51.354;15.754;2023-03-08T04:19:54;-0.10;99.90
13375;DHT22;6756;51.354;15.754;2023-03-08T04:23:55;-0.10;99.90
13375;DHT22;6756;51.354;15.754;2023-03-08T04:27:55;-0.20;99.90
13375;DHT22;6756;51.354;15.754;2023-03-08T04:31:56;-0.20;99.90
13375;DHT22;6756;51.354;15.754;2023-03-08T04:35:59;-0.30;99.90
13375;DHT22;6756;51.354;15.754;2023-03-08T04:40:00;-0.30;99.90
13375;DHT22;6756;51.354;15.754;2023-03-08T04:44:01;-0.30;99.90
13375;DHT22;6756;51.354;15.754;2023-03-08T04:48:02;-0.30;99.90
13375;DHT22;6756;51.354;15.754;2023-03-08T04:52:03;-0.30;99.90
13375;DHT22;6756;51.354;15.754;2023-03-08T04:56:05;-0.30;99.90
13375;DHT22;6756;51.354;15.754;2023-03-08T05:00:07;-0.30;99.90
13375;DHT22;6756;51.354;15.754;2023-03-08T05:04:11;-0.30;99.90
13375;DHT22;6756;51.354;15.754;2023-03-08T05:08:12;-0.30;99.90
13375;DHT22;6756;51.354;15.754;2023-03-08T05:12:13;-0.20;99.90
13375;DHT22;6756;51.354;15.754;2023-03-08T05:16:14;-0.20;99.90
13375;DHT22;6756;51.354;15.754;2023-03-08T05:20:15;-0.20;99.90
13375;DHT22;6756;51.354;15.754;2023-03-08T05:24:16;-0.20;99.90
13375;DHT22;6756;51.354;15.754;2023-03-08T05:28:17;-0.20;99.90
13375;DHT22;6756;51.354;15.754;2023-03-08T05:32:18;-0.20;99.90
13375;DHT22;6756;51.354;15.754;2023-03-08T05:36:19;-0.20;99.90
13375;DHT22;6756;51.354;15.754;2023-03-08T05:40:20;-0.20;99.90
13375;DHT22;6756;51.354;15.754;2023-03-08T05:44:21;-0.20;99.90
13375;DHT22;6756;51.354;15.754;2023-03-08T05:48:22;-0.10;99.90
13375;DHT22;6756;51.354;15.754;2023-03-08T05:52:23;-0.20;99.90
13375;DHT22;6756;51.354;15.754;2023-03-08T05:56:24;-0.30;99.90
13375;DHT22;6756;51.354;15.754;2023-03-08T06:00:25;-0.30;99.90
13375;DHT22;6756;51.354;15.754;2023-03-08T06:04:26;-0.30;99.90
13375;DHT22;6756;51.354;15.754;2023-03-08T06:08:27;-0.20;99.90
13375;DHT22;6756;51.354;15.754;2023-03-08T06:12:27;0.10;99.90
13375;DHT22;6756;51.354;15.754;2023-03-08T06:16:28;0.40;99.90
13375;DHT22;6756;51.354;15.754;2023-03-08T06:20:29;0.60;99.90
13375;DHT22;6756;51.354;15.754;2023-03-08T06:24:30;0.70;99.90
13375;DHT22;6756;51.354;15.754;2023-03-08T06:28:31;0.70;99.90
13375;DHT22;6756;51.354;15.754;2023-03-08T06:32:31;0.60;99.90
13375;DHT22;6756;51.354;15.754;2023-03-08T06:36:33;0.50;99.90
13375;DHT22;6756;51.354;15.754;2023-03-08T06:40:33;0.40;99.90
13375;DHT22;6756;51.354;15.754;2023-03-08T06:44:34;0.50;99.90
13375;DHT22;6756;51.354;15.754;2023-03-08T06:48:36;0.60;99.90
13375;DHT22;6756;51.354;15.754;2023-03-08T06:52:37;0.70;99.90
13375;DHT22;6756;51.354;15.754;2023-03-08T06:56:37;1.10;99.90
13375;DHT22;6756;51.354;15.754;2023-03-08T07:00:38;1.50;99.90
13375;DHT22;6756;51.354;15.754;2023-03-08T07:04:39;1.60;99.90
13375;DHT22;6756;51.354;15.754;2023-03-08T07:08:40;1.80;99.90
13375;DHT22;6756;51.354;15.754;2023-03-08T07:12:42;2.20;99.90
13375;DHT22;6756;51.354;15.754;2023-03-08T07:16:46;2.50;99.90
13375;DHT22;6756;51.354;15.754;2023-03-08T07:20:52;2.70;99.90
13375;DHT22;6756;51.354;15.754;2023-03-08T07:24:54;2.80;1.00
13375;DHT22;6756;51.354;15.754;2023-03-08T07:28:55;2.80;99.90
13375;DHT22;6756;51.354;15.754;2023-03-08T07:32:57;2.80;1.00
13375;DHT22;6756;51.354;15.754;2023-03-08T07:36:58;2.90;99.90
13375;DHT22;6756;51.354;15.754;2023-03-08T07:40:58;2.90;99.90
13375;DHT22;6756;51.354;15.754;2023-03-08T07:44:59;3.00;99.90
13375;DHT22;6756;51.354;15.754;2023-03-08T07:49:00;3.10;99.90
13375;DHT22;6756;51.354;15.754;2023-03-08T07:53:01;3.00;99.90
13375;DHT22;6756;51.354;15.754;2023-03-08T07:57:04;3.00;99.90
13375;DHT22;6756;51.354;15.754;2023-03-08T08:01:12;2.90;99.90
13375;DHT22;6756;51.354;15.754;2023-03-08T08:05:13;3.20;99.90
13375;DHT22;6756;51.354;15.754;2023-03-08T08:09:14;3.50;99.90
13375;DHT22;6756;51.354;15.754;2023-03-08T08:13:17;3.40;99.90
13375;DHT22;6756;51.354;15.754;2023-03-08T08:17:21;3.50;99.90
13375;DHT22;6756;51.354;15.754;2023-03-08T08:21:22;3.50;99.90
13375;DHT22;6756;51.354;15.754;2023-03-08T08:25:23;3.50;99.90
13375;DHT22;6756;51.354;15.754;2023-03-08T08:29:23;3.60;99.90
13375;DHT22;6756;51.354;15.754;2023-03-08T08:33:26;3.60;99.90
13375;DHT22;6756;51.354;15.754;2023-03-08T08:37:28;3.80;99.90
13375;DHT22;6756;51.354;15.754;2023-03-08T08:41:30;3.80;99.90
13375;DHT22;6756;51.354;15.754;2023-03-08T08:45:31;3.80;99.90
13375;DHT22;6756;51.354;15.754;2023-03-08T08:49:32;3.60;99.90
13375;DHT22;6756;51.354;15.754;2023-03-08T08:53:33;3.80;99.90
13375;DHT22;6756;51.354;15.754;2023-03-08T08:57:34;3.70;99.90
13375;DHT22;6756;51.354;15.754;2023-03-08T09:01:35;3.60;99.90
13375;DHT22;6756;51.354;15.754;2023-03-08T09:05:41;4.10;99.90
13375;DHT22;6756;51.354;15.754;2023-03-08T09:09:42;4.70;99.90
13375;DHT22;6756;51.354;15.754;2023-03-08T09:13:43;5.10;55.10
13375;DHT22;6756;51.354;15.754;2023-03-08T09:17:44;5.40;6.50
13375;DHT22;6756;51.354;15.754;2023-03-08T09:21:45;5.50;1.00
13375;DHT22;6756;51.354;15.754;2023-03-08T09:25:54;5.60;1.00
13375;DHT22;6756;51.354;15.754;2023-03-08T09:29:55;5.60;1.00
13375;DHT22;6756;51.354;15.754;2023-03-08T09:33:57;5.80;1.00
13375;DHT22;6756;51.354;15.754;2023-03-08T09:37:59;6.20;1.00
13375;DHT22;6756;51.354;15.754;2023-03-08T09:42:02;6.50;1.00
13375;DHT22;6756;51.354;15.754;2023-03-08T09:46:03;6.70;1.00
13375;DHT22;6756;51.354;15.754;2023-03-08T09:54:16;6.60;1.00
13375;DHT22;6756;51.354;15.754;2023-03-08T10:11:44;7.60;1.00
13375;DHT22;6756;51.354;15.754;2023-03-08T10:15:51;7.80;1.00
13375;DHT22;6756;51.354;15.754;2023-03-08T10:20:03;7.90;1.00
13375;DHT22;6756;51.354;15.754;2023-03-08T10:28:21;7.90;1.00
13375;DHT22;6756;51.354;15.754;2023-03-08T10:32:24;7.60;1.00
13375;DHT22;6756;51.354;15.754;2023-03-08T10:36:25;7.20;1.00
13375;DHT22;6756;51.354;15.754;2023-03-08T10:40:26;6.90;1.00
13375;DHT22;6756;51.354;15.754;2023-03-08T10:44:40;6.80;1.00
13375;DHT22;6756;51.354;15.754;2023-03-08T10:48:42;6.80;1.00
13375;DHT22;6756;51.354;15.754;2023-03-08T10:52:45;6.90;1.00
13375;DHT22;6756;51.354;15.754;2023-03-08T10:56:58;6.90;1.00
13375;DHT22;6756;51.354;15.754;2023-03-08T11:01:05;6.90;1.00
13375;DHT22;6756;51.354;15.754;2023-03-08T11:05:19;6.90;1.00
13375;DHT22;6756;51.354;15.754;2023-03-08T11:09:30;6.80;1.00
13375;DHT22;6756;51.354;15.754;2023-03-08T11:13:42;7.00;1.00
13375;DHT22;6756;51.354;15.754;2023-03-08T11:18:14;7.20;1.00
13375;DHT22;6756;51.354;15.754;2023-03-08T11:35:23;7.10;1.00
13375;DHT22;6756;51.354;15.754;2023-03-08T11:39:32;6.90;1.00
13375;DHT22;6756;51.354;15.754;2023-03-08T11:52:46;6.70;1.00
13375;DHT22;6756;51.354;15.754;2023-03-08T11:56:55;6.30;1.00
13375;DHT22;6756;51.354;15.754;2023-03-08T12:01:00;6.00;1.00
13375;DHT22;6756;51.354;15.754;2023-03-08T12:13:49;5.30;63.50
13375;DHT22;6756;51.354;15.754;2023-03-08T12:18:00;5.10;99.90
13375;DHT22;6756;51.354;15.754;2023-03-08T12:26:46;5.10;99.90
13375;DHT22;6756;51.354;15.754;2023-03-08T12:35:03;5.20;99.90
13375;DHT22;6756;51.354;15.754;2023-03-08T12:39:07;5.50;99.90
13375;DHT22;6756;51.354;15.754;2023-03-08T12:47:21;5.60;99.90
13375;DHT22;6756;51.354;15.754;2023-03-08T12:51:33;5.80;99.90
13375;DHT22;6756;51.354;15.754;2023-03-08T12:55:34;5.90;99.90
13375;DHT22;6756;51.354;15.754;2023-03-08T12:59:37;6.10;99.90
13375;DHT22;6756;51.354;15.754;2023-03-08T13:03:40;6.40;62.40
13375;DHT22;6756;51.354;15.754;2023-03-08T13:12:22;6.60;75.60
13375;DHT22;6756;51.354;15.754;2023-03-08T13:16:35;6.30;72.50
13375;DHT22;6756;51.354;15.754;2023-03-08T13:20:57;6.10;99.90
13375;DHT22;6756;51.354;15.754;2023-03-08T13:25:16;5.80;99.90
13375;DHT22;6756;51.354;15.754;2023-03-08T13:29:20;5.80;99.90
13375;DHT22;6756;51.354;15.754;2023-03-08T13:33:24;5.80;99.90
13375;DHT22;6756;51.354;15.754;2023-03-08T13:37:28;5.70;99.90
13375;DHT22;6756;51.354;15.754;2023-03-08T13:41:40;5.60;99.90
13375;DHT22;6756;51.354;15.754;2023-03-08T13:45:50;5.40;99.90
13375;DHT22;6756;51.354;15.754;2023-03-08T13:49:53;5.30;99.90
13375;DHT22;6756;51.354;15.754;2023-03-08T13:53:55;5.10;99.90
13375;DHT22;6756;51.354;15.754;2023-03-08T13:57:56;5.00;99.90
13375;DHT22;6756;51.354;15.754;2023-03-08T14:01:57;4.90;99.90
13375;DHT22;6756;51.354;15.754;2023-03-08T14:05:58;4.70;99.90
13375;DHT22;6756;51.354;15.754;2023-03-08T14:10:00;4.50;99.90
13375;DHT22;6756;51.354;15.754;2023-03-08T14:14:02;4.40;1.00
13375;DHT22;6756;51.354;15.754;2023-03-08T14:18:04;4.30;1.00
13375;DHT22;6756;51.354;15.754;2023-03-08T14:22:09;4.30;1.00
13375;DHT22;6756;51.354;15.754;2023-03-08T14:26:25;4.30;5.10
13375;DHT22;6756;51.354;15.754;2023-03-08T14:30:29;4.30;1.00
13375;DHT22;6756;51.354;15.754;2023-03-08T14:34:45;4.10;46.70
13375;DHT22;6756;51.354;15.754;2023-03-08T14:38:48;4.10;22.30
13375;DHT22;6756;51.354;15.754;2023-03-08T14:42:52;4.00;41.60
13375;DHT22;6756;51.354;15.754;2023-03-08T14:46:54;3.90;99.90
13375;DHT22;6756;51.354;15.754;2023-03-08T14:51:03;3.80;35.50
13375;DHT22;6756;51.354;15.754;2023-03-08T14:55:19;3.70;99.90
13375;DHT22;6756;51.354;15.754;2023-03-08T14:59:20;3.80;99.90
13375;DHT22;6756;51.354;15.754;2023-03-08T15:03:22;3.80;99.90
13375;DHT22;6756;51.354;15.754;2023-03-08T15:07:28;3.80;99.90
13375;DHT22;6756;51.354;15.754;2023-03-08T15:11:31;3.90;99.90
13375;DHT22;6756;51.354;15.754;2023-03-08T15:15:32;3.90;99.90
13375;DHT22;6756;51.354;15.754;2023-03-08T15:19:33;3.90;99.90
13375;DHT22;6756;51.354;15.754;2023-03-08T15:23:35;3.90;99.90
13375;DHT22;6756;51.354;15.754;2023-03-08T15:27:37;3.90;99.90
13375;DHT22;6756;51.354;15.754;2023-03-08T15:31:38;3.90;99.90
13375;DHT22;6756;51.354;15.754;2023-03-08T15:35:39;3.90;99.90
13375;DHT22;6756;51.354;15.754;2023-03-08T15:39:40;4.00;99.90
13375;DHT22;6756;51.354;15.754;2023-03-08T15:43:41;4.00;99.90
13375;DHT22;6756;51.354;15.754;2023-03-08T15:47:43;4.00;99.90
13375;DHT22;6756;51.354;15.754;2023-03-08T15:51:44;4.00;99.90
13375;DHT22;6756;51.354;15.754;2023-03-08T15:55:45;3.90;99.90
13375;DHT22;6756;51.354;15.754;2023-03-08T15:59:45;3.80;99.90
13375;DHT22;6756;51.354;15.754;2023-03-08T16:03:46;3.80;1.00
13375;DHT22;6756;51.354;15.754;2023-03-08T16:07:52;3.80;1.00
13375;DHT22;6756;51.354;15.754;2023-03-08T16:11:53;3.70;1.00
13375;DHT22;6756;51.354;15.754;2023-03-08T16:16:00;3.60;99.90
13375;DHT22;6756;51.354;15.754;2023-03-08T16:20:02;3.60;1.00
13375;DHT22;6756;51.354;15.754;2023-03-08T16:24:05;3.50;99.90
13375;DHT22;6756;51.354;15.754;2023-03-08T16:28:07;3.40;1.00
13375;DHT22;6756;51.354;15.754;2023-03-08T16:32:13;3.50;8.30
13375;DHT22;6756;51.354;15.754;2023-03-08T16:36:17;3.40;99.90
13375;DHT22;6756;51.354;15.754;2023-03-08T16:40:18;3.30;1.00
13375;DHT22;6756;51.354;15.754;2023-03-08T16:44:26;3.30;99.90
13375;DHT22;6756;51.354;15.754;2023-03-08T16:48:28;3.20;99.90
13375;DHT22;6756;51.354;15.754;2023-03-08T16:52:29;3.20;99.90
13375;DHT22;6756;51.354;15.754;2023-03-08T16:56:30;3.20;1.00
13375;DHT22;6756;51.354;15.754;2023-03-08T17:00:30;3.20;1.00
13375;DHT22;6756;51.354;15.754;2023-03-08T17:04:31;3.10;99.90
13375;DHT22;6756;51.354;15.754;2023-03-08T17:08:32;3.10;1.00
13375;DHT22;6756;51.354;15.754;2023-03-08T17:12:33;3.10;97.40
13375;DHT22;6756;51.354;15.754;2023-03-08T17:16:35;3.10;99.90
13375;DHT22;6756;51.354;15.754;2023-03-08T17:20:40;3.10;99.90
13375;DHT22;6756;51.354;15.754;2023-03-08T17:24:41;3.00;99.90
13375;DHT22;6756;51.354;15.754;2023-03-08T17:28:43;3.00;99.90
13375;DHT22;6756;51.354;15.754;2023-03-08T17:32:43;3.00;1.00
13375;DHT22;6756;51.354;15.754;2023-03-08T17:36:47;2.90;1.00
13375;DHT22;6756;51.354;15.754;2023-03-08T17:40:48;2.90;99.90
13375;DHT22;6756;51.354;15.754;2023-03-08T17:44:48;2.90;99.90
13375;DHT22;6756;51.354;15.754;2023-03-08T17:48:49;2.90;1.00
13375;DHT22;6756;51.354;15.754;2023-03-08T17:52:54;2.90;1.00
13375;DHT22;6756;51.354;15.754;2023-03-08T17:56:54;2.90;90.00
13375;DHT22;6756;51.354;15.754;2023-03-08T18:00:55;2.90;99.90
13375;DHT22;6756;51.354;15.754;2023-03-08T18:04:56;2.90;99.90
13375;DHT22;6756;51.354;15.754;2023-03-08T18:08:59;2.90;99.90
13375;DHT22;6756;51.354;15.754;2023-03-08T18:13:00;2.90;99.90
13375;DHT22;6756;51.354;15.754;2023-03-08T18:17:01;2.90;99.90
13375;DHT22;6756;51.354;15.754;2023-03-08T18:21:02;2.80;99.90
13375;DHT22;6756;51.354;15.754;2023-03-08T18:25:04;2.90;99.90
13375;DHT22;6756;51.354;15.754;2023-03-08T18:29:05;2.90;99.90
13375;DHT22;6756;51.354;15.754;2023-03-08T18:33:06;2.90;99.90
13375;DHT22;6756;51.354;15.754;2023-03-08T18:37:06;2.90;99.90
13375;DHT22;6756;51.354;15.754;2023-03-08T18:45:16;2.90;99.90
13375;DHT22;6756;51.354;15.754;2023-03-08T18:49:18;2.90;99.90
13375;DHT22;6756;51.354;15.754;2023-03-08T18:53:19;2.90;99.90
13375;DHT22;6756;51.354;15.754;2023-03-08T18:57:19;2.90;99.90
13375;DHT22;6756;51.354;15.754;2023-03-08T19:01:20;2.90;99.90
13375;DHT22;6756;51.354;15.754;2023-03-08T19:05:22;2.90;99.90
13375;DHT22;6756;51.354;15.754;2023-03-08T19:09:22;2.90;99.90
13375;DHT22;6756;51.354;15.754;2023-03-08T19:13:24;2.90;99.90
13375;DHT22;6756;51.354;15.754;2023-03-08T19:17:25;2.90;99.90
13375;DHT22;6756;51.354;15.754;2023-03-08T19:21:31;2.90;99.90
13375;DHT22;6756;51.354;15.754;2023-03-08T19:25:33;2.90;99.90
13375;DHT22;6756;51.354;15.754;2023-03-08T19:29:34;2.90;99.90
13375;DHT22;6756;51.354;15.754;2023-03-08T19:33:35;2.90;99.90
13375;DHT22;6756;51.354;15.754;2023-03-08T19:37:36;3.00;99.90
13375;DHT22;6756;51.354;15.754;2023-03-08T19:41:36;2.90;99.90
13375;DHT22;6756;51.354;15.754;2023-03-08T19:45:37;2.90;99.90
13375;DHT22;6756;51.354;15.754;2023-03-08T19:49:39;2.90;99.90
13375;DHT22;6756;51.354;15.754;2023-03-08T19:53:40;2.90;99.90
13375;DHT22;6756;51.354;15.754;2023-03-08T19:57:41;2.90;99.90
13375;DHT22;6756;51.354;15.754;2023-03-08T20:01:42;2.90;99.90
13375;DHT22;6756;51.354;15.754;2023-03-08T20:05:45;2.90;99.90
13375;DHT22;6756;51.354;15.754;2023-03-08T20:09:51;2.90;99.90
13375;DHT22;6756;51.354;15.754;2023-03-08T20:13:52;2.90;99.90
13375;DHT22;6756;51.354;15.754;2023-03-08T20:17:53;2.90;99.90
13375;DHT22;6756;51.354;15.754;2023-03-08T20:21:53;2.90;99.90
13375;DHT22;6756;51.354;15.754;2023-03-08T20:25:54;2.90;99.90
13375;DHT22;6756;51.354;15.754;2023-03-08T20:29:55;2.90;99.90
13375;DHT22;6756;51.354;15.754;2023-03-08T20:33:56;2.80;99.90
13375;DHT22;6756;51.354;15.754;2023-03-08T20:37:57;2.80;99.90
13375;DHT22;6756;51.354;15.754;2023-03-08T20:41:58;2.80;99.90
13375;DHT22;6756;51.354;15.754;2023-03-08T20:46:01;2.80;99.90
13375;DHT22;6756;51.354;15.754;2023-03-08T20:50:05;2.80;99.90
13375;DHT22;6756;51.354;15.754;2023-03-08T20:54:07;2.90;99.90
13375;DHT22;6756;51.354;15.754;2023-03-08T20:58:08;2.80;99.90
13375;DHT22;6756;51.354;15.754;2023-03-08T21:02:11;2.80;99.90
13375;DHT22;6756;51.354;15.754;2023-03-08T21:06:15;2.80;99.90
13375;DHT22;6756;51.354;15.754;2023-03-08T21:10:16;2.80;99.90
13375;DHT22;6756;51.354;15.754;2023-03-08T21:14:17;2.70;99.90
13375;DHT22;6756;51.354;15.754;2023-03-08T21:18:18;2.70;99.90
13375;DHT22;6756;51.354;15.754;2023-03-08T21:22:19;2.70;99.90
13375;DHT22;6756;51.354;15.754;2023-03-08T21:26:22;2.60;99.90
13375;DHT22;6756;51.354;15.754;2023-03-08T21:30:24;2.70;99.90
13375;DHT22;6756;51.354;15.754;2023-03-08T21:34:27;2.70;99.90
13375;DHT22;6756;51.354;15.754;2023-03-08T21:38:28;2.60;99.90
13375;DHT22;6756;51.354;15.754;2023-03-08T21:42:29;2.40;99.90
13375;DHT22;6756;51.354;15.754;2023-03-08T21:46:30;2.40;99.90
13375;DHT22;6756;51.354;15.754;2023-03-08T21:50:31;2.30;99.90
13375;DHT22;6756;51.354;15.754;2023-03-08T21:54:32;2.20;99.90
13375;DHT22;6756;51.354;15.754;2023-03-08T21:58:34;2.10;99.90
13375;DHT22;6756;51.354;15.754;2023-03-08T22:02:35;2.10;99.90
13375;DHT22;6756;51.354;15.754;2023-03-08T22:06:41;2.10;99.90
13375;DHT22;6756;51.354;15.754;2023-03-08T22:10:42;2.10;99.90
13375;DHT22;6756;51.354;15.754;2023-03-08T22:14:43;2.10;99.90
13375;DHT22;6756;51.354;15.754;2023-03-08T22:18:44;2.10;99.90
13375;DHT22;6756;51.354;15.754;2023-03-08T22:22:45;2.10;99.90
13375;DHT22;6756;51.354;15.754;2023-03-08T22:26:46;2.00;99.90
13375;DHT22;6756;51.354;15.754;2023-03-08T22:30:47;2.00;99.90
13375;DHT22;6756;51.354;15.754;2023-03-08T22:34:48;2.10;99.90
13375;DHT22;6756;51.354;15.754;2023-03-08T22:38:49;2.10;99.90
13375;DHT22;6756;51.354;15.754;2023-03-08T22:42:50;2.00;99.90
13375;DHT22;6756;51.354;15.754;2023-03-08T22:46:51;2.00;99.90
13375;DHT22;6756;51.354;15.754;2023-03-08T22:50:57;2.00;99.90
13375;DHT22;6756;51.354;15.754;2023-03-08T22:54:58;2.00;99.90
13375;DHT22;6756;51.354;15.754;2023-03-08T22:59:00;2.00;99.90
13375;DHT22;6756;51.354;15.754;2023-03-08T23:03:01;2.00;99.90
13375;DHT22;6756;51.354;15.754;2023-03-08T23:07:02;2.00;99.90
13375;DHT22;6756;51.354;15.754;2023-03-08T23:11:03;2.00;99.90
13375;DHT22;6756;51.354;15.754;2023-03-08T23:20:02;2.00;99.90
13375;DHT22;6756;51.354;15.754;2023-03-08T23:29:01;2.00;99.90
13375;DHT22;6756;51.354;15.754;2023-03-08T23:33:03;1.90;99.90
13375;DHT22;6756;51.354;15.754;2023-03-08T23:37:04;1.90;99.90
13375;DHT22;6756;51.354;15.754;2023-03-08T23:41:07;1.90;99.90
13375;DHT22;6756;51.354;15.754;2023-03-08T23:45:08;1.90;99.90
13375;DHT22;6756;51.354;15.754;2023-03-08T23:49:09;1.90;99.90
13375;DHT22;6756;51.354;15.754;2023-03-08T23:53:10;1.90;99.90
13375;DHT22;6756;51.354;15.754;2023-03-08T23:57:11;1.80;99.90
